Saint Médard d'Aunis (17)                   Avril 2012                      
  Température (°C) - Abri Young à ventilation mécanique 43502 Humidité Vent (km/h) Précipitations (mm) Pression (hPa) Divers  
Date Maxi Mini Moy de 1440 relevés Moy (tx+tn)/2 Index chaleur moyen Index chaleur maxi Froid dû au vent moy  Froid dû au vent mini/1min   Amplitude (Tx-Tn) Tx OMM/1min Tn OMM/1min Tm OMM/1min Relative maxi Relative mini Relative moy de 1440 relevés Relative moy (hx+hn)/2 Point de rosée maxi Point de rosée mini Point de rosée moy 1440 relevés Vent moy maxi (10min) Vent  moyen (24h) Direction dominante Rafales (km/h) maxi Direction rafale maxi Rafales moy (24h) Total du jour (mm) Durée en heures et dixièmes Intensité maxi sur 1 min (mm/h) Maxi Mini Moy de 1440 relevés Moy (px+pn)/2 Variation Epaisseur neige (cm) Remarques diverses  
01/04/2012 16,9 5,4 10,53 11,15 9,94 15,4 7,95 2,4 11,5 16,8 5,4 11,10 90% 37% 63,7% 63,5% 6,5 -1,0 3,36 26,37 16,86 NE 41,8 NE 22,70 0,0 0,0 0,0 1015,3 1011,3 1013,41 1013,30 4,0   Ciel entre 0/8 et 1/8  
02/04/2012 17,9 0,3 8,43 9,10 7,88 16,6 7,27 -2,2 17,6 17,7 0,5 9,10 95% 40% 64,9% 67,5% 8,1 -4,2 1,70 13,70 7,49 NNE 20,9 SSW 9,91 0,0 0,0 0,0 1011,3 1005,9 1007,96 1008,60 5,4   Ciel 0/8 à 1/8  
03/04/2012 14,3 -0,3 7,60 7,00 7,41 13,5 5,71 -2,3 14,6 14,2 -0,2 7,00 97% 47% 81,4% 72,0% 9,3 -1,3 4,37 29,63 12,15 WNW 43,5 WNW 15,02 0,2 0,1 12,0 1008,9 1005,1 1006,80 1007,00 3,8   Brouillard, ciel 1/8 à 3/8 le matin, 3/8 à 4/8 l'après-midi, 2/8 le soir  
04/04/2012 13,6 4,9 9,34 9,25 9,16 12,9 8,15 4,1 8,7 13,3 5,0 9,15 95% 59% 77,4% 77,0% 8,8 1,7 5,43 19,14 8,56 NW 25,7 W 11,02 0,0 0,0 0,0 1012,0 1007,9 1009,47 1009,95 4,1   Ciel 6/8 à 7/8 le matin, 7/8 à 8/8 l'après-midi, traces de précip, 6/8 le soir  
05/04/2012 18,8 -0,3 10,55 9,25 9,92 17,4 9,17 -2,5 19,1 18,6 -0,1 9,25 91% 42% 65,7% 66,5% 7,8 -2,3 3,78 22,83 10,86 NE 33,8 ENE 14,72 0,0 0,0 0,0 1012,3 1009,6 1011,08 1010,95 2,7   Ciel 2/8 à 5/8 le matin, 5/8 à 6/8 l'après-midi  
06/04/2012 17,2 7,1 11,45 12,15 11,27 16,8 8,69 3,1 10,1 17,1 7,1 12,10 92% 62% 77,7% 77,0% 10,8 5,5 7,56 25,24 18,54 NE 38,6 NE 24,97 3,2 1,3 12,0 1011,2 1006,8 1009,18 1009,00 4,4   Ciel entre 6/8 et 8/8, pluie, 4/8 le soir  
07/04/2012 16,7 5,0 11,10 10,85 10,53 15,1 9,18 1,9 11,7 16,7 5,1 10,90 86% 35% 65,8% 60,5% 8,0 -0,3 4,51 22,99 13,81 NNE 37,0 NNE 18,14 0,0 0,0 0,0 1016,1 1008,1 1011,19 1012,10 8,0   Ciel 5/8 à 6/8 le matin, 5/8 à 3/8 l'après-midi  
08/04/2012 15,7 6,7 11,12 11,20 11,01 15,2 10,03 4,8 9,0 15,7 6,7 11,20 94% 61% 81,3% 77,5% 9,8 5,6 7,91 18,82 9,69 N 27,4 NW 12,63 0,0 0,0 0,0 1019,4 1016,0 1017,99 1017,70 3,4   Ciel entre 6/8 et 8/8, traces de précipitations  
09/04/2012 14,9 6,4 11,49 10,65 11,34 14,3 9,27 4,7 8,5 14,8 6,4 10,60 97% 65% 80,4% 81,0% 10,3 5,3 8,11 25,27 15,83 SW 41,8 SW 21,09 0,0 0,0 0,0 1017,3 1002,0 1010,10 1009,65 15,3   Ciel entre 6/8 et 8/8  
10/04/2012 12,7 6,8 10,55 9,75 10,48 12,5 7,50 3,9 5,9 12,7 6,8 9,75 94% 66% 82,7% 80,0% 10,2 4,5 7,68 29,47 19,86 W 46,7 SW 25,85 6,2 2,2 24,0 1003,2 997,2 1000,12 1000,20 6,0   Ciel entre 7/8 et 8/8 le matin, pluie, entre 3/8 et 8/8 ensuite, averses  
11/04/2012 14,2 3,9 9,40 9,05 9,32 13,6 7,35 2,1 10,3 14,0 4,1 9,05 96% 60% 83,1% 78,0% 9,3 2,9 6,56 31,38 13,82 W 43,5 W 17,05 3,0 1,1 12,0 1005,3 1002,7 1004,20 1004,00 2,6   Ciel entre 4/8 et 8/8, averses  
12/04/2012 14,7 2,8 9,38 8,75 9,21 14,0 8,19 1,7 11,9 14,6 2,9 8,75 97% 56% 80,9% 76,5% 9,0 1,7 6,04 25,25 9,06 N 32,2 W 11,81 0,2 0,1 12,0 1007,9 1004,3 1006,18 1006,10 3,6   Ciel entre 2/8 et 7/8 le matin, entre 2/8 et 4/8 ensuite  
13/04/2012 15,1 0,0 7,31 7,55 7,11 14,3 6,26 -1,3 15,1 14,9 0,1 7,50 98% 49% 82,1% 73,5% 9,4 -0,9 4,20 24,27 8,11 NW 33,8 W 10,43 2,6 0,3 24,0 1007,5 1005,2 1006,33 1006,35 2,3   Brume, ciel entre 3/8 et 7/8 le matin, une averse, 5/8 à 2/8 l'après-midi  
14/04/2012 13,7 0,4 7,49 7,05 7,37 12,8 6,58 0,0 13,3 13,4 0,6 7,00 96% 61% 83,2% 78,5% 10,0 -0,4 4,68 22,98 6,83 NNW 32,2 NW 9,14 5,0 0,8 48,0 1007,4 1003,3 1004,72 1005,35 4,1   Ciel entre 4/8 et 7/8, averses de pluie et grêle l'après-midi  
15/04/2012 13,8 3,7 8,94 8,75 8,54 12,8 5,70 -0,2 10,1 13,7 3,8 8,75 93% 44% 69,5% 68,5% 6,2 -0,8 3,27 35,55 20,39 N 56,3 NNE 26,93 0,0 0,0 0,0 1023,3 1007,1 1014,22 1015,20 16,2   Ciel entre 5/8 et 8/8 le matin, traces de précipitations, 4/8 l'après-midi  
16/04/2012 13,3 0,3 6,34 6,80 5,86 12,0 3,54 -3,3 13,0 13,3 0,4 6,85 88% 39% 65,5% 63,5% 2,2 -1,8 -0,19 22,67 14,14 N 35,4 NNE 18,65 0,0 0,0 0,0 1026,4 1023,2 1024,80 1024,80 3,2   Ciel entre 2/8 et 5/8  
17/04/2012 13,2 -0,5 7,33 6,35 7,28 13,0 4,40 -2,7 13,7 13,1 -0,4 6,35 95% 66% 84,9% 80,5% 10,6 -2,0 4,88 36,85 17,71 WNW 59,5 SSW 23,19 6,2 2,1 24,0 1023,6 1005,8 1013,16 1014,70 17,8   Ciel entre 3/8 et 8/8, pluie, 2/8 le soir  
18/04/2012 14,4 7,6 10,13 11,00 10,06 14,0 6,28 2,8 6,8 14,4 7,7 11,05 92% 65% 81,8% 78,5% 10,0 5,1 7,11 43,31 26,40 WSW 67,6 WSW 33,20 9,8 2,1 24,0 1005,8 992,8 996,93 999,30 13,0   Ciel entre 5/8 et 8/8, averses  
19/04/2012 13,9 5,2 9,97 9,55 9,84 13,4 6,93 3,5 8,7 13,8 5,3 9,55 94% 62% 79,8% 78,0% 9,8 3,5 6,56 39,91 20,22 W 57,9 WNW 25,38 5,8 1,8 24,0 1000,4 992,3 995,98 996,35 8,1   Ciel entre 5/8 et 8/8, averses  
20/04/2012 14,2 3,3 9,62 8,75 9,52 13,7 7,01 1,4 10,9 14,1 3,4 8,75 96% 67% 82,7% 81,5% 10,0 1,9 6,74 35,08 17,76 W 48,3 W 22,01 2,8 0,5 36,0 1006,1 1000,3 1003,20 1003,20 5,8   Ciel entre 3/8 et 8/8, averses, grêle le soir  
21/04/2012 13,8 6,2 10,19 10,00 10,07 13,1 6,97 3,2 7,6 13,7 6,2 9,95 91% 62% 79,9% 76,5% 9,8 3,7 6,80 36,52 21,29 WNW 53,1 WNW 26,76 6,0 1,2 48,0 1014,1 1004,0 1007,93 1009,05 10,1   Ciel entre 5/8 et 8/8, averses  
22/04/2012 13,9 1,8 8,86 7,85 8,68 13,4 6,46 -0,3 12,1 13,8 2,1 7,95 97% 60% 80,8% 78,5% 9,6 1,0 5,56 32,52 15,84 W 46,7 W 19,42 1,0 0,2 12,0 1014,5 1012,5 1013,87 1013,50 2,0   Ciel entre 5/8 et 8/8, averses  
23/04/2012 13,7 6,4 10,05 10,05 10,05 13,4 5,76 2,3 7,3 13,7 6,4 10,05 95% 62% 84,5% 78,5% 11,3 4,9 7,48 55,04 33,90 W 80,5 W 43,38 11,2 3,9 12,0 1012,5 997,5 1002,10 1005,00 15,0   Ciel 8/8 le matin, pluie, averses, entre 3/8 et 8/8 ensuite, averses  
24/04/2012 14,2 8,4 10,85 11,30 10,72 13,7 7,06 3,2 5,8 14,2 8,4 11,30 93% 63% 78,9% 78,0% 9,7 4,6 7,30 51,02 27,46 WNW 75,6 WNW 35,14 4,6 1,6 12,0 1009,1 999,5 1005,85 1004,30 9,6   Ciel entre 4/8 et 8/8, averses  
25/04/2012 13,6 7,3 9,86 10,45 9,91 13,4 6,15 2,0 6,3 13,4 7,3 10,35 93% 79% 87,5% 86,0% 11,2 5,6 7,87 33,96 24,13 SSW 61,2 SSW 32,79 11,8 4,8 12,0 1003,8 994,5 997,31 999,15 9,3   Ciel 8/8, pluie, 7/8 le soir  
26/04/2012 15,9 8,9 11,91 12,40 11,75 15,4 10,22 6,3 7,0 15,7 8,9 12,30 92% 58% 79,0% 75,0% 11,0 5,7 8,26 24,61 13,38 SW 40,2 SW 18,32 0,0 0,0 0,0 1013,2 999,8 1007,13 1006,50 13,4   Ciel 8/8 à 5/8 le matin, 4/8 à 6/8 l'après-midi  
27/04/2012 12,1 8,9 10,26 10,50 10,42 12,0 8,58 5,1 3,2 12,0 8,9 10,45 95% 82% 91,7% 88,5% 10,4 7,2 8,95 23,62 11,66 SSE 32,2 NNE 15,45 11,2 4,3 12,0 1015,5 1011,1 1013,60 1013,30 4,4   Ciel 8/8, pluie  
28/04/2012 11,0 8,5 9,97 9,75 10,22 11,2 8,79 6,0 2,5 11,0 8,6 9,80 98% 94% 95,7% 96,0% 10,4 7,8 9,33 17,22 8,89 NNE 25,7 NNE 12,29 31,2 11,9 24,0 1013,4 998,8 1006,87 1006,10 14,6   Ciel 8/8, pluie  
29/04/2012 14,7 5,7 10,75 10,20 10,78 14,4 7,63 3,3 9,0 14,7 5,8 10,25 98% 73% 87,4% 85,5% 11,4 4,9 8,68 39,90 22,29 SW 64,4 SW 30,77 3,2 1,3 12,0 1011,9 997,7 1005,35 1004,80 14,2   Ciel entre 6/8 et 8/8, averses  
30/04/2012 15,3 4,8 9,72 10,05 9,56 14,6 8,43 2,3 10,5 15,2 4,8 10,00 98% 59% 82,7% 78,5% 10,7 3,4 6,69 20,90 9,60 W 29,0 W 12,21 0,2 0,1 12,0 1014,1 1010,6 1011,73 1012,35 3,5   Ciel 6/8 à 5/8  
                                                                         
  Température (°C) - Abri Young à ventilation mécanique 43502 Humidité Vent (km/h) Précipitations (mm) Pression (hPa) Divers  
  Maxi Mini Moy de 1440 relevés Moy (tx+tn)/2 Index chaleur moyen Index chaleur maxi Froid dû au vent moy  Froid dû au vent mini/1min   Amplitude (Tx-Tn) Tx OMM/1min Tn OMM/1min Tm OMM/1min Relative maxi Relative mini Relative moy de 1440 relevés Relative moy (hx+hn)/2 Point de rosée maxi Point de rosée mini Point de rosée moy 1440 relevés Vent moy maxi (10min) Vent  moyen (24h) Direction dominante Rafales (km/h) maxi Direction rafale maxi Rafales moy (24h) Total du jour (mm) Durée en heures et dixièmes Intensité maxi sur 1 min (mm/h) Maxi Mini Moy de 1440 relevés Moy (px+pn)/2 Variation Epaisseur neige (cm) Remarques diverses  
Maxi 18,8 8,9 11,91 12,40 11,75 17,4 10,22 6,3 19,1 18,6 8,9 12,30 98% 94% 95,7% 96,0% 11,4 7,8 9,33 55,04 33,90 W 80,5 W 43,38 31,2 11,9 48,0 1026,4 1023,2 1024,80 1024,80 17,8 0,0    
Mini 11,0 -0,5 6,34 6,35 5,86 11,2 3,54 -3,3 2,5 11,0 -0,4 6,35 86% 35% 63,7% 60,5% 2,2 -4,2 -0,19 13,70 6,83   20,9   9,14       1000,4 992,3 995,98 996,35 2,0      
Moy 14,58 4,52 9,68 9,55 9,51 13,93 7,37 1,84 10,06 14,48 4,60 9,54 94,2% 59,2% 79,4% 76,7% 9,39 2,38 6,04 29,53 15,88   44,42   20,68       1012,09 1004,43 1007,96 1008,26 7,66      
Total                                                   125,4 41,3             0,0    
 
  Observations      
Jours Rafales >= 36,0 km/h Rafales >= 57,6 km/h Rafales >= 75,6 km/h Rafales >= 100,8 km/h Précipi. >= 0,1 mm Précipi. >= 1,0 mm Précipi. >= 5,0 mm Précipi. >= 10,0 mm Tx <= 0 Tx >= 25 Tx >= 30 Tx >= 35 Tx >= 40 Tn <= 0 Tn <= -5 Tn <= -10 Tn <= -15 T moy <= 0 T moy <=     -5 T moy >= 20 T moy >= 25 T moy >= 30 Grêle Grésil Brouillard Brume Orage Neige        
01/04/2012 1 0 0 0 0 0 0 0 0 0 0 0 0 0 0 0 0 0 0 0 0 0 0 0 0 0 0 0    
02/04/2012 0 0 0 0 0 0 0 0 0 0 0 0 0 0 0 0 0 0 0 0 0 0 0 0 0 0 0 0    
03/04/2012 1 0 0 0 1 0 0 0 0 0 0 0 0 1 0 0 0 0 0 0 0 0 0 0 1 0 0 0    
04/04/2012 0 0 0 0 0 0 0 0 0 0 0 0 0 0 0 0 0 0 0 0 0 0 0 0 0 0 0 0    
05/04/2012 0 0 0 0 0 0 0 0 0 0 0 0 0 1 0 0 0 0 0 0 0 0 0 0 0 0 0 0    
06/04/2012 1 0 0 0 1 1 0 0 0 0 0 0 0 0 0 0 0 0 0 0 0 0 0 0 0 0 0 0    
07/04/2012 1 0 0 0 0 0 0 0 0 0 0 0 0 0 0 0 0 0 0 0 0 0 0 0 0 0 0 0    
08/04/2012 0 0 0 0 0 0 0 0 0 0 0 0 0 0 0 0 0 0 0 0 0 0 0 0 0 0 0 0    
09/04/2012 1 0 0 0 0 0 0 0 0 0 0 0 0 0 0 0 0 0 0 0 0 0 0 0 0 0 0 0    
10/04/2012 1 0 0 0 1 1 1 0 0 0 0 0 0 0 0 0 0 0 0 0 0 0 0 0 0 0 0 0    
11/04/2012 1 0 0 0 1 1 0 0 0 0 0 0 0 0 0 0 0 0 0 0 0 0 0 0 0 0 0 0    
12/04/2012 0 0 0 0 1 0 0 0 0 0 0 0 0 0 0 0 0 0 0 0 0 0 0 0 0 0 0 0    
13/04/2012 0 0 0 0 1 1 0 0 0 0 0 0 0 1 0 0 0 0 0 0 0 0 0 0 0 1 0 0    
14/04/2012 0 0 0 0 1 1 1 0 0 0 0 0 0 0 0 0 0 0 0 0 0 0 1 0 0 0 0 0    
15/04/2012 1 0 0 0 0 0 0 0 0 0 0 0 0 0 0 0 0 0 0 0 0 0 0 0 0 0 0 0    
16/04/2012 0 0 0 0 0 0 0 0 0 0 0 0 0 0 0 0 0 0 0 0 0 0 0 0 0 0 0 0    
17/04/2012 1 1 0 0 1 1 1 0 0 0 0 0 0 1 0 0 0 0 0 0 0 0 0 0 0 0 0 0    
18/04/2012 1 1 0 0 1 1 1 0 0 0 0 0 0 0 0 0 0 0 0 0 0 0 0 0 0 0 0 0    
19/04/2012 1 1 0 0 1 1 1 0 0 0 0 0 0 0 0 0 0 0 0 0 0 0 0 0 0 0 0 0    
20/04/2012 1 0 0 0 1 1 0 0 0 0 0 0 0 0 0 0 0 0 0 0 0 0 1 0 0 0 0 0    
21/04/2012 1 0 0 0 1 1 1 0 0 0 0 0 0 0 0 0 0 0 0 0 0 0 0 0 0 0 0 0    
22/04/2012 1 0 0 0 1 1 0 0 0 0 0 0 0 0 0 0 0 0 0 0 0 0 0 0 0 0 0 0    
23/04/2012 1 1 1 0 1 1 1 1 0 0 0 0 0 0 0 0 0 0 0 0 0 0 0 0 0 0 0 0    
24/04/2012 1 1 1 0 1 1 0 0 0 0 0 0 0 0 0 0 0 0 0 0 0 0 0 0 0 0 0 0    
25/04/2012 1 1 0 0 1 1 1 1 0 0 0 0 0 0 0 0 0 0 0 0 0 0 0 0 0 0 0 0    
26/04/2012 1 0 0 0 0 0 0 0 0 0 0 0 0 0 0 0 0 0 0 0 0 0 0 0 0 0 0 0    
27/04/2012 0 0 0 0 1 1 1 1 0 0 0 0 0 0 0 0 0 0 0 0 0 0 0 0 0 0 0 0    
28/04/2012 0 0 0 0 1 1 1 1 0 0 0 0 0 0 0 0 0 0 0 0 0 0 0 0 0 0 0 0    
29/04/2012 1 1 0 0 1 1 0 0 0 0 0 0 0 0 0 0 0 0 0 0 0 0 0 0 0 0 0 0    
30/04/2012 0 0 0 0 1 0 0 0 0 0 0 0 0 0 0 0 0 0 0 0 0 0 0 0 0 0 0 0    
                                                             
   
  Rafales >= 36,0 km/h Rafales >= 57,6 km/h Rafales >= 75,6 km/h Rafales >= 100,8 km/h Précipi. >= 0,1 mm Précipi. >= 1,0 mm Précipi. >= 5,0 mm Précipi. >= 10,0 mm Tx <=0 Tx >= 25 Tx >= 30 Tx >= 35 Tx >= 40 Tn <= 0 Tn <= -5 Tn <= -10 Tn <= -15 T moy <= 0 T moy <=  -5 T moy >= 20 T moy >= 25 T moy >= 30 Grêle Grésil Brouillard Brume Orage Neige        
Total 19 7 2 0 20 17 10 4 0 0 0 0 0 4 0 0 0 0 0 0 0 0 2 0 1 1 0 0